createdAt,value
2018-04-27T00:00:43.619Z,11.12
2018-04-27T00:03:13.856Z,11.24
2018-04-27T00:05:44.749Z,11.49
2018-04-27T00:08:15.171Z,11.40
2018-04-27T00:10:45.080Z,11.62
2018-04-27T00:13:14.841Z,11.63
2018-04-27T00:15:44.507Z,11.57
2018-04-27T00:18:14.625Z,11.46
2018-04-27T00:20:44.262Z,11.44
2018-04-27T00:23:15.387Z,11.44
2018-04-27T00:25:44.916Z,11.39
2018-04-27T00:28:14.577Z,11.39
2018-04-27T00:30:44.261Z,11.40
2018-04-27T00:33:14.597Z,11.42
2018-04-27T00:35:44.835Z,11.47
2018-04-27T00:38:14.681Z,11.48
2018-04-27T00:40:44.289Z,11.47
2018-04-27T00:43:14.144Z,11.37
2018-04-27T00:45:44.847Z,11.27
2018-04-27T00:48:15.661Z,11.24
2018-04-27T00:50:45.404Z,11.17
2018-04-27T00:53:16.394Z,10.96
2018-04-27T00:55:46.113Z,10.98
2018-04-27T00:58:15.744Z,11.03
2018-04-27T01:00:45.547Z,11.21
2018-04-27T01:03:15.039Z,11.14
2018-04-27T01:05:44.647Z,11.04
2018-04-27T01:08:14.481Z,10.98
2018-04-27T01:10:44.697Z,11.04
2018-04-27T01:13:14.389Z,11.09
2018-04-27T01:15:44.048Z,11.09
2018-04-27T01:18:14.609Z,11.03
2018-04-27T01:20:46.810Z,11.06
2018-04-27T01:23:17.166Z,11.04
2018-04-27T01:25:46.831Z,11.01
2018-04-27T01:28:17.603Z,10.98
2018-04-27T01:30:47.249Z,11.06
2018-04-27T01:33:17.609Z,11.12
2018-04-27T01:35:47.340Z,11.11
2018-04-27T01:38:17.151Z,10.98
2018-04-27T01:40:46.839Z,11.02
2018-04-27T01:43:17.233Z,11.19
2018-04-27T01:45:47.077Z,11.08
2018-04-27T01:48:17.523Z,11.04
2018-04-27T01:50:48.923Z,10.84
2018-04-27T01:53:18.487Z,10.75
2018-04-27T01:55:48.405Z,10.68
2018-04-27T01:58:19.034Z,10.56
2018-04-27T02:00:49.537Z,10.53
2018-04-27T02:03:19.010Z,10.52
2018-04-27T02:05:49.504Z,10.46
2018-04-27T02:08:19.182Z,10.41
2018-04-27T02:10:49.488Z,10.37
2018-04-27T02:13:19.148Z,10.30
2018-04-27T02:15:50.078Z,10.38
2018-04-27T02:18:19.861Z,10.31
2018-04-27T02:20:51.556Z,10.18
2018-04-27T02:23:22.621Z,10.15
2018-04-27T02:25:53.683Z,10.15
2018-04-27T02:28:24.325Z,10.08
2018-04-27T02:30:55.015Z,10.00
2018-04-27T02:33:24.723Z,10.15
2018-04-27T02:35:54.212Z,10.15
2018-04-27T02:38:23.751Z,10.22
2018-04-27T02:40:53.557Z,10.42
2018-04-27T02:43:23.153Z,10.48
2018-04-27T02:45:52.708Z,10.46
2018-04-27T02:48:22.334Z,10.38
2018-04-27T02:50:51.816Z,10.18
2018-04-27T02:53:22.140Z,10.14
2018-04-27T02:55:52.533Z,10.05
2018-04-27T02:58:22.056Z,9.98
2018-04-27T03:00:52.707Z,10.07
2018-04-27T03:03:23.089Z,10.09
2018-04-27T03:05:52.971Z,10.23
2018-04-27T03:08:22.664Z,10.23
2018-04-27T03:10:53.011Z,10.24
2018-04-27T03:13:22.619Z,10.14
2018-04-27T03:15:58.574Z,10.14
2018-04-27T03:18:29.251Z,10.16
2018-04-27T03:20:59.999Z,10.15
2018-04-27T03:23:30.513Z,10.16
2018-04-27T03:26:00.321Z,10.25
2018-04-27T03:28:29.796Z,10.27
2018-04-27T03:31:04.006Z,10.29
2018-04-27T03:33:34.537Z,10.23
2018-04-27T03:36:05.069Z,10.21
2018-04-27T03:38:34.563Z,10.17
2018-04-27T03:41:05.232Z,10.20
2018-04-27T03:43:34.930Z,10.19
2018-04-27T03:46:05.031Z,10.13
2018-04-27T03:48:36.141Z,10.13
2018-04-27T03:51:05.910Z,10.26
2018-04-27T03:53:36.073Z,10.31
2018-04-27T03:56:07.181Z,10.30
2018-04-27T03:58:36.905Z,10.24
2018-04-27T04:01:24.523Z,10.28
2018-04-27T04:04:11.827Z,10.25
2018-04-27T04:06:42.336Z,10.30
2018-04-27T04:09:12.810Z,10.30
2018-04-27T04:11:42.631Z,10.29
2018-04-27T04:14:12.140Z,10.34
2018-04-27T04:16:41.726Z,10.34
2018-04-27T04:19:11.560Z,10.35
2018-04-27T04:21:41.181Z,10.34
2018-04-27T04:24:11.629Z,10.30
2018-04-27T04:26:42.137Z,10.32
2018-04-27T04:29:11.819Z,10.35
2018-04-27T04:31:41.587Z,10.48
2018-04-27T04:34:11.941Z,10.66
2018-04-27T04:36:41.567Z,10.90
2018-04-27T04:39:11.081Z,11.11
2018-04-27T04:41:40.827Z,11.36
2018-04-27T04:44:11.206Z,11.69
2018-04-27T04:46:40.694Z,11.87
2018-04-27T04:49:10.233Z,12.06
2018-04-27T04:51:39.946Z,12.35
2018-04-27T04:54:09.597Z,12.67
2018-04-27T04:56:39.762Z,13.10
2018-04-27T04:59:09.245Z,13.72
2018-04-27T05:01:42.034Z,14.38
2018-04-27T05:04:14.219Z,14.93
2018-04-27T05:06:47.138Z,15.36
2018-04-27T05:09:17.845Z,15.70
2018-04-27T05:11:48.651Z,16.12
2018-04-27T05:14:18.958Z,16.54
2018-04-27T05:16:49.378Z,17.01
2018-04-27T05:19:19.732Z,17.62
2018-04-27T05:21:49.811Z,17.92
2018-04-27T05:24:20.330Z,18.19
2018-04-27T05:26:50.571Z,18.40
2018-04-27T05:29:20.868Z,18.58
2018-04-27T05:31:50.869Z,18.65
2018-04-27T05:34:20.416Z,18.93
2018-04-27T05:36:50.782Z,19.50
2018-04-27T05:39:20.474Z,20.00
2018-04-27T05:41:50.065Z,20.19
2018-04-27T05:44:19.784Z,20.67
2018-04-27T05:46:49.650Z,20.92
2018-04-27T05:49:19.409Z,21.34
2018-04-27T05:51:49.091Z,21.64
2018-04-27T05:54:18.836Z,21.85
2018-04-27T05:56:48.769Z,22.27
2018-04-27T05:59:19.383Z,22.50
2018-04-27T06:01:49.826Z,22.85
2018-04-27T06:04:19.567Z,23.06
2018-04-27T06:06:49.381Z,23.13
2018-04-27T06:09:19.126Z,23.18
2018-04-27T06:11:49.386Z,23.18
2018-04-27T06:14:18.983Z,23.33
2018-04-27T06:16:49.534Z,23.60
2018-04-27T06:19:19.125Z,23.77
2018-04-27T06:21:48.853Z,23.87
2018-04-27T06:24:18.630Z,23.79
2018-04-27T06:26:48.389Z,23.47
2018-04-27T06:29:18.072Z,22.93
2018-04-27T06:31:48.241Z,23.13
2018-04-27T06:34:18.568Z,23.17
2018-04-27T06:36:48.432Z,23.28
2018-04-27T06:39:18.051Z,23.42
2018-04-27T06:41:55.928Z,23.70
2018-04-27T06:44:26.390Z,23.28
2018-04-27T06:46:56.273Z,22.88
2018-04-27T06:49:26.026Z,22.85
2018-04-27T06:51:56.122Z,23.28
2018-04-27T06:54:26.651Z,23.50
2018-04-27T06:56:57.104Z,23.73
2018-04-27T06:59:26.959Z,24.21
2018-04-27T07:01:56.623Z,24.71
2018-04-27T07:04:26.623Z,24.90
2018-04-27T07:06:57.349Z,25.85
2018-04-27T07:09:27.195Z,26.74
2018-04-27T07:11:57.233Z,27.14
2018-04-27T07:14:27.943Z,26.98
2018-04-27T07:16:57.707Z,27.28
2018-04-27T07:19:27.478Z,27.25
2018-04-27T07:21:57.296Z,26.68
2018-04-27T07:24:27.009Z,26.70
2018-04-27T07:26:56.589Z,26.89
2018-04-27T07:29:26.323Z,27.78
2018-04-27T07:32:05.201Z,28.70
2018-04-27T07:34:34.719Z,28.39
2018-04-27T07:37:04.471Z,27.71
2018-04-27T07:39:34.807Z,27.94
2018-04-27T07:42:04.639Z,28.04
2018-04-27T07:44:35.361Z,28.74
2018-04-27T07:47:06.449Z,28.63
2018-04-27T07:49:36.718Z,28.35
2018-04-27T07:52:06.826Z,27.89
2018-04-27T07:54:38.111Z,26.95
2018-04-27T07:57:08.058Z,27.64
2018-04-27T07:59:38.309Z,28.61
2018-04-27T08:02:07.925Z,29.72
2018-04-27T08:04:40.003Z,30.38
2018-04-27T08:07:09.805Z,29.71
2018-04-27T08:09:40.949Z,30.25
2018-04-27T08:12:11.366Z,30.37
2018-04-27T08:14:41.977Z,30.84
2018-04-27T08:17:11.714Z,31.17
2018-04-27T08:19:42.339Z,31.60
2018-04-27T08:22:12.266Z,32.08
2018-04-27T08:24:43.003Z,32.52
2018-04-27T08:27:13.056Z,32.36
2018-04-27T08:29:44.684Z,32.62
2018-04-27T08:32:14.907Z,33.01
2018-04-27T08:34:45.424Z,33.72
2018-04-27T08:37:15.178Z,33.36
2018-04-27T08:39:46.034Z,33.28
2018-04-27T08:42:15.778Z,32.91
2018-04-27T08:44:45.517Z,33.59
2018-04-27T08:47:15.098Z,33.72
2018-04-27T08:49:44.715Z,33.31
2018-04-27T08:52:14.424Z,33.66
2018-04-27T08:54:44.266Z,33.97
2018-04-27T08:57:13.966Z,34.44
2018-04-27T08:59:45.442Z,35.24
2018-04-27T09:02:15.828Z,35.20
2018-04-27T09:04:45.412Z,35.11
2018-04-27T09:07:15.123Z,36.10
2018-04-27T09:09:46.033Z,34.99
2018-04-27T09:12:18.968Z,35.71
2018-04-27T09:14:49.742Z,35.33
2018-04-27T09:17:20.304Z,36.03
2018-04-27T09:19:52.186Z,35.93
2018-04-27T09:22:22.225Z,36.71
2018-04-27T09:24:51.763Z,35.15
2018-04-27T09:27:21.451Z,34.90
2018-04-27T09:29:51.214Z,35.55
2018-04-27T09:32:20.818Z,36.47
2018-04-27T09:34:50.320Z,36.75
2018-04-27T09:37:19.926Z,37.25
2018-04-27T09:39:54.241Z,37.13
2018-04-27T09:42:29.193Z,36.90
2018-04-27T09:45:03.464Z,37.27
2018-04-27T09:47:55.227Z,37.43
2018-04-27T09:50:38.640Z,37.59
2018-04-27T09:53:09.953Z,38.31
2018-04-27T09:55:40.101Z,38.56
2018-04-27T09:58:10.488Z,38.46
2018-04-27T10:00:40.192Z,38.24
2018-04-27T10:03:10.018Z,38.05
2018-04-27T10:05:45.016Z,38.28
2018-04-27T10:08:14.767Z,38.54
2018-04-27T10:10:44.329Z,38.01
2018-04-27T10:13:14.794Z,37.88
2018-04-27T10:15:44.406Z,37.98
2018-04-27T10:18:15.122Z,38.06
2018-04-27T10:20:44.779Z,37.61
2018-04-27T10:23:14.567Z,36.95
2018-04-27T10:25:44.487Z,36.21
2018-04-27T10:28:14.003Z,35.38
2018-04-27T10:30:43.791Z,35.22
2018-04-27T10:33:13.618Z,35.12
2018-04-27T10:35:43.303Z,35.39
2018-04-27T10:38:12.854Z,35.94
2018-04-27T10:40:54.739Z,35.98
2018-04-27T10:43:24.312Z,35.87
2018-04-27T10:45:53.865Z,36.16
2018-04-27T10:48:24.005Z,36.57
2018-04-27T10:50:53.875Z,37.24
2018-04-27T10:53:24.612Z,37.54
2018-04-27T10:55:54.325Z,37.45
2018-04-27T10:58:24.844Z,37.20
2018-04-27T11:00:54.626Z,37.28
2018-04-27T11:03:24.423Z,38.02
2018-04-27T11:05:55.120Z,38.37
2018-04-27T11:08:25.811Z,37.77
2018-04-27T11:10:55.463Z,37.75
2018-04-27T11:13:25.226Z,36.03
2018-04-27T11:15:54.966Z,34.37
2018-04-27T11:18:25.599Z,33.80
2018-04-27T11:20:55.233Z,33.42
2018-04-27T11:23:25.019Z,33.33
2018-04-27T11:25:55.782Z,33.47
2018-04-27T11:28:26.197Z,34.15
2018-04-27T11:30:55.904Z,34.69
2018-04-27T11:33:25.700Z,35.87
2018-04-27T11:35:55.494Z,36.28
2018-04-27T11:38:25.167Z,35.33
2018-04-27T11:40:54.738Z,35.41
2018-04-27T11:43:24.256Z,35.70
2018-04-27T11:45:54.889Z,35.07
2018-04-27T11:48:24.835Z,34.86
2018-04-27T11:50:54.639Z,34.38
2018-04-27T11:53:24.617Z,31.56
2018-04-27T11:55:55.792Z,29.53
2018-04-27T11:58:26.547Z,29.30
2018-04-27T12:00:56.417Z,29.98
2018-04-27T12:03:27.025Z,28.91
2018-04-27T12:05:57.165Z,29.20
2018-04-27T12:08:27.919Z,29.03
2018-04-27T12:10:57.878Z,28.88
2018-04-27T12:13:27.576Z,29.08
2018-04-27T12:15:58.038Z,28.90
2018-04-27T12:18:28.014Z,29.51
2018-04-27T12:20:58.261Z,29.50
2018-04-27T12:23:27.828Z,29.85
2018-04-27T12:25:58.177Z,29.75
2018-04-27T12:28:28.573Z,29.56
2018-04-27T12:30:58.161Z,29.56
2018-04-27T12:33:27.647Z,29.34
2018-04-27T12:35:57.293Z,29.48
2018-04-27T12:38:26.950Z,28.90
2018-04-27T12:40:56.565Z,27.94
2018-04-27T12:43:26.228Z,28.53
2018-04-27T12:45:55.866Z,28.80
2018-04-27T12:48:26.354Z,29.25
2018-04-27T12:50:57.096Z,29.13
2018-04-27T12:53:26.803Z,28.81
2018-04-27T12:55:56.474Z,28.72
2018-04-27T12:58:26.142Z,28.95
2018-04-27T13:00:55.826Z,28.84
2018-04-27T13:03:25.687Z,28.59
2018-04-27T13:05:56.281Z,28.96
2018-04-27T13:08:26.705Z,28.91
2018-04-27T13:10:57.199Z,29.13
2018-04-27T13:13:27.579Z,28.83
2018-04-27T13:15:58.048Z,28.44
2018-04-27T13:18:27.833Z,28.90
2018-04-27T13:20:57.922Z,29.52
2018-04-27T13:23:27.457Z,29.92
2018-04-27T13:25:57.001Z,29.82
2018-04-27T13:28:26.484Z,29.01
2018-04-27T13:30:56.941Z,28.23
2018-04-27T13:33:26.822Z,28.03
2018-04-27T13:35:56.599Z,28.03
2018-04-27T13:38:26.140Z,28.04
2018-04-27T13:40:56.733Z,28.27
2018-04-27T13:43:26.339Z,28.43
2018-04-27T13:45:55.884Z,28.48
2018-04-27T13:48:26.479Z,28.20
2018-04-27T13:50:56.177Z,27.57
2018-04-27T13:53:25.877Z,27.32
2018-04-27T13:55:55.624Z,27.08
2018-04-27T13:58:45.671Z,27.03
2018-04-27T14:01:41.265Z,27.01
2018-04-27T14:08:58.066Z,27.44
2018-04-27T14:11:27.984Z,27.41
2018-04-27T14:13:57.748Z,27.50
2018-04-27T14:16:27.868Z,27.56
2018-04-27T14:18:58.541Z,27.67
2018-04-27T14:21:28.276Z,27.43
2018-04-27T14:23:57.804Z,27.75
2018-04-27T14:26:27.358Z,27.86
2018-04-27T14:28:56.980Z,27.74
2018-04-27T14:31:26.504Z,27.43
2018-04-27T14:33:57.516Z,27.52
2018-04-27T14:36:27.123Z,27.36
2018-04-27T14:38:56.832Z,27.66
2018-04-27T14:41:26.554Z,27.85
2018-04-27T14:43:56.857Z,27.80
2018-04-27T14:46:26.386Z,27.59
2018-04-27T14:48:55.947Z,27.63
2018-04-27T14:51:25.611Z,27.97
2018-04-27T14:53:55.291Z,28.06
2018-04-27T14:56:24.930Z,28.08
2018-04-27T14:58:55.547Z,27.70
